sensor_id;sensor_type;location;lat;lon;timestamp;P1;durP1;ratioP1;P2;durP2;ratioP2
51358;SDS011;37448;51.588;7.248;2024-02-16T00:00:03;2.20;;;1.10;;
51358;SDS011;37448;51.588;7.248;2024-02-16T00:02:11;2.15;;;1.00;;
51358;SDS011;37448;51.588;7.248;2024-02-16T00:04:12;2.20;;;1.10;;
51358;SDS011;37448;51.588;7.248;2024-02-16T00:06:12;1.25;;;0.90;;
51358;SDS011;37448;51.588;7.248;2024-02-16T00:08:13;2.47;;;1.40;;
51358;SDS011;37448;51.588;7.248;2024-02-16T00:10:13;1.85;;;1.10;;
51358;SDS011;37448;51.588;7.248;2024-02-16T00:12:13;2.53;;;1.00;;
51358;SDS011;37448;51.588;7.248;2024-02-16T00:14:14;2.08;;;0.93;;
51358;SDS011;37448;51.588;7.248;2024-02-16T00:16:15;1.95;;;0.82;;
51358;SDS011;37448;51.588;7.248;2024-02-16T00:18:15;1.15;;;0.75;;
51358;SDS011;37448;51.588;7.248;2024-02-16T00:20:16;1.52;;;0.85;;
51358;SDS011;37448;51.588;7.248;2024-02-16T00:22:16;1.30;;;0.82;;
51358;SDS011;37448;51.588;7.248;2024-02-16T00:24:17;1.33;;;0.90;;
51358;SDS011;37448;51.588;7.248;2024-02-16T00:26:17;1.52;;;0.75;;
51358;SDS011;37448;51.588;7.248;2024-02-16T00:28:18;1.48;;;0.93;;
51358;SDS011;37448;51.588;7.248;2024-02-16T00:30:19;3.20;;;1.00;;
51358;SDS011;37448;51.588;7.248;2024-02-16T00:32:20;2.30;;;0.88;;
51358;SDS011;37448;51.588;7.248;2024-02-16T00:34:20;1.63;;;0.88;;
51358;SDS011;37448;51.588;7.248;2024-02-16T00:36:21;0.90;;;0.80;;
51358;SDS011;37448;51.588;7.248;2024-02-16T00:38:21;2.72;;;1.00;;
51358;SDS011;37448;51.588;7.248;2024-02-16T00:40:23;1.73;;;0.80;;
51358;SDS011;37448;51.588;7.248;2024-02-16T00:42:24;1.98;;;0.90;;
51358;SDS011;37448;51.588;7.248;2024-02-16T00:44:26;1.58;;;0.77;;
51358;SDS011;37448;51.588;7.248;2024-02-16T00:46:27;2.47;;;1.20;;
51358;SDS011;37448;51.588;7.248;2024-02-16T00:48:27;2.58;;;0.88;;
51358;SDS011;37448;51.588;7.248;2024-02-16T00:50:27;2.45;;;0.70;;
51358;SDS011;37448;51.588;7.248;2024-02-16T00:52:28;3.35;;;1.02;;
51358;SDS011;37448;51.588;7.248;2024-02-16T00:54:28;1.77;;;1.17;;
51358;SDS011;37448;51.588;7.248;2024-02-16T00:56:29;2.83;;;1.05;;
51358;SDS011;37448;51.588;7.248;2024-02-16T00:58:30;2.15;;;1.00;;
51358;SDS011;37448;51.588;7.248;2024-02-16T01:00:30;3.40;;;1.50;;
51358;SDS011;37448;51.588;7.248;2024-02-16T01:02:31;2.65;;;1.00;;
51358;SDS011;37448;51.588;7.248;2024-02-16T01:04:32;1.77;;;0.88;;
51358;SDS011;37448;51.588;7.248;2024-02-16T01:06:33;2.05;;;1.05;;
51358;SDS011;37448;51.588;7.248;2024-02-16T01:08:33;2.60;;;1.25;;
51358;SDS011;37448;51.588;7.248;2024-02-16T01:10:34;0.82;;;0.60;;
51358;SDS011;37448;51.588;7.248;2024-02-16T01:12:34;1.73;;;1.00;;
51358;SDS011;37448;51.588;7.248;2024-02-16T01:14:34;2.67;;;1.30;;
51358;SDS011;37448;51.588;7.248;2024-02-16T01:16:35;2.40;;;1.05;;
51358;SDS011;37448;51.588;7.248;2024-02-16T01:18:35;3.05;;;1.58;;
51358;SDS011;37448;51.588;7.248;2024-02-16T01:20:37;1.38;;;1.00;;
51358;SDS011;37448;51.588;7.248;2024-02-16T01:22:38;3.67;;;1.35;;
51358;SDS011;37448;51.588;7.248;2024-02-16T01:24:39;3.25;;;0.95;;
51358;SDS011;37448;51.588;7.248;2024-02-16T01:26:40;3.08;;;1.20;;
51358;SDS011;37448;51.588;7.248;2024-02-16T01:28:40;2.00;;;1.20;;
51358;SDS011;37448;51.588;7.248;2024-02-16T01:30:41;2.95;;;1.30;;
51358;SDS011;37448;51.588;7.248;2024-02-16T01:32:41;3.15;;;1.70;;
51358;SDS011;37448;51.588;7.248;2024-02-16T01:34:42;2.85;;;1.40;;
51358;SDS011;37448;51.588;7.248;2024-02-16T01:36:44;4.07;;;1.40;;
51358;SDS011;37448;51.588;7.248;2024-02-16T01:38:44;2.97;;;1.65;;
51358;SDS011;37448;51.588;7.248;2024-02-16T01:40:44;3.60;;;1.42;;
51358;SDS011;37448;51.588;7.248;2024-02-16T01:42:46;2.13;;;1.10;;
51358;SDS011;37448;51.588;7.248;2024-02-16T01:44:47;4.65;;;2.00;;
51358;SDS011;37448;51.588;7.248;2024-02-16T01:46:47;2.47;;;1.10;;
51358;SDS011;37448;51.588;7.248;2024-02-16T01:48:48;4.28;;;1.75;;
51358;SDS011;37448;51.588;7.248;2024-02-16T01:50:50;2.35;;;1.20;;
51358;SDS011;37448;51.588;7.248;2024-02-16T01:52:51;2.42;;;1.25;;
51358;SDS011;37448;51.588;7.248;2024-02-16T01:54:52;1.38;;;1.10;;
51358;SDS011;37448;51.588;7.248;2024-02-16T01:56:52;1.75;;;1.00;;
51358;SDS011;37448;51.588;7.248;2024-02-16T01:58:54;2.22;;;1.23;;
51358;SDS011;37448;51.588;7.248;2024-02-16T02:00:56;2.80;;;1.02;;
51358;SDS011;37448;51.588;7.248;2024-02-16T02:02:56;2.85;;;1.10;;
51358;SDS011;37448;51.588;7.248;2024-02-16T02:04:57;4.32;;;1.17;;
51358;SDS011;37448;51.588;7.248;2024-02-16T02:06:58;3.95;;;1.85;;
51358;SDS011;37448;51.588;7.248;2024-02-16T02:08:58;1.55;;;1.13;;
51358;SDS011;37448;51.588;7.248;2024-02-16T02:10:58;3.90;;;1.58;;
51358;SDS011;37448;51.588;7.248;2024-02-16T02:12:59;2.17;;;1.08;;
51358;SDS011;37448;51.588;7.248;2024-02-16T02:14:59;1.75;;;0.80;;
51358;SDS011;37448;51.588;7.248;2024-02-16T02:17:00;2.25;;;0.90;;
51358;SDS011;37448;51.588;7.248;2024-02-16T02:19:00;2.42;;;1.00;;
51358;SDS011;37448;51.588;7.248;2024-02-16T02:21:01;1.67;;;1.08;;
51358;SDS011;37448;51.588;7.248;2024-02-16T02:23:01;2.83;;;1.20;;
51358;SDS011;37448;51.588;7.248;2024-02-16T02:25:02;2.42;;;1.00;;
51358;SDS011;37448;51.588;7.248;2024-02-16T02:27:02;1.88;;;1.30;;
51358;SDS011;37448;51.588;7.248;2024-02-16T02:29:03;1.55;;;1.10;;
51358;SDS011;37448;51.588;7.248;2024-02-16T02:31:03;2.08;;;0.98;;
51358;SDS011;37448;51.588;7.248;2024-02-16T02:33:03;2.95;;;1.00;;
51358;SDS011;37448;51.588;7.248;2024-02-16T02:35:05;3.10;;;1.20;;
51358;SDS011;37448;51.588;7.248;2024-02-16T02:37:06;3.72;;;1.30;;
51358;SDS011;37448;51.588;7.248;2024-02-16T02:39:06;1.63;;;0.80;;
51358;SDS011;37448;51.588;7.248;2024-02-16T02:41:07;2.70;;;1.10;;
51358;SDS011;37448;51.588;7.248;2024-02-16T02:43:07;0.90;;;0.63;;
51358;SDS011;37448;51.588;7.248;2024-02-16T02:45:08;3.05;;;1.08;;
51358;SDS011;37448;51.588;7.248;2024-02-16T02:47:09;4.13;;;1.10;;
51358;SDS011;37448;51.588;7.248;2024-02-16T02:49:09;1.80;;;1.10;;
51358;SDS011;37448;51.588;7.248;2024-02-16T02:51:10;5.53;;;1.38;;
51358;SDS011;37448;51.588;7.248;2024-02-16T02:53:10;3.10;;;1.00;;
51358;SDS011;37448;51.588;7.248;2024-02-16T02:55:10;1.77;;;0.80;;
51358;SDS011;37448;51.588;7.248;2024-02-16T02:57:11;2.72;;;1.20;;
51358;SDS011;37448;51.588;7.248;2024-02-16T02:59:12;1.48;;;0.82;;
51358;SDS011;37448;51.588;7.248;2024-02-16T03:01:13;2.10;;;0.90;;
51358;SDS011;37448;51.588;7.248;2024-02-16T03:03:14;3.55;;;0.90;;
51358;SDS011;37448;51.588;7.248;2024-02-16T03:05:14;3.28;;;1.20;;
51358;SDS011;37448;51.588;7.248;2024-02-16T03:07:14;1.63;;;1.00;;
51358;SDS011;37448;51.588;7.248;2024-02-16T03:09:15;4.65;;;1.23;;
51358;SDS011;37448;51.588;7.248;2024-02-16T03:11:17;2.63;;;1.00;;
51358;SDS011;37448;51.588;7.248;2024-02-16T03:13:17;4.03;;;0.95;;
51358;SDS011;37448;51.588;7.248;2024-02-16T03:15:18;1.20;;;0.80;;
51358;SDS011;37448;51.588;7.248;2024-02-16T03:17:19;2.38;;;1.00;;
51358;SDS011;37448;51.588;7.248;2024-02-16T03:19:19;2.35;;;1.30;;
51358;SDS011;37448;51.588;7.248;2024-02-16T03:21:19;2.75;;;1.20;;
51358;SDS011;37448;51.588;7.248;2024-02-16T03:23:21;2.35;;;1.10;;
51358;SDS011;37448;51.588;7.248;2024-02-16T03:25:21;1.70;;;1.20;;
51358;SDS011;37448;51.588;7.248;2024-02-16T03:27:23;3.17;;;1.50;;
51358;SDS011;37448;51.588;7.248;2024-02-16T03:29:23;1.85;;;1.33;;
51358;SDS011;37448;51.588;7.248;2024-02-16T03:31:24;2.13;;;1.20;;
51358;SDS011;37448;51.588;7.248;2024-02-16T03:33:25;1.60;;;0.90;;
51358;SDS011;37448;51.588;7.248;2024-02-16T03:35:25;3.03;;;1.20;;
51358;SDS011;37448;51.588;7.248;2024-02-16T03:37:27;1.70;;;1.00;;
51358;SDS011;37448;51.588;7.248;2024-02-16T03:39:28;1.85;;;0.90;;
51358;SDS011;37448;51.588;7.248;2024-02-16T03:41:28;1.77;;;1.27;;
51358;SDS011;37448;51.588;7.248;2024-02-16T03:43:28;4.95;;;1.00;;
51358;SDS011;37448;51.588;7.248;2024-02-16T03:45:29;2.35;;;0.93;;
51358;SDS011;37448;51.588;7.248;2024-02-16T03:47:29;3.15;;;1.30;;
51358;SDS011;37448;51.588;7.248;2024-02-16T03:49:29;2.25;;;1.00;;
51358;SDS011;37448;51.588;7.248;2024-02-16T03:51:30;4.25;;;1.25;;
51358;SDS011;37448;51.588;7.248;2024-02-16T03:53:31;2.30;;;1.02;;
51358;SDS011;37448;51.588;7.248;2024-02-16T03:55:31;4.35;;;1.30;;
51358;SDS011;37448;51.588;7.248;2024-02-16T03:57:37;1.15;;;0.82;;
51358;SDS011;37448;51.588;7.248;2024-02-16T03:59:38;1.85;;;0.80;;
51358;SDS011;37448;51.588;7.248;2024-02-16T04:01:38;3.25;;;0.93;;
51358;SDS011;37448;51.588;7.248;2024-02-16T04:03:38;2.40;;;0.95;;
51358;SDS011;37448;51.588;7.248;2024-02-16T04:05:39;1.88;;;0.77;;
51358;SDS011;37448;51.588;7.248;2024-02-16T04:07:39;3.00;;;1.13;;
51358;SDS011;37448;51.588;7.248;2024-02-16T04:09:40;3.60;;;1.17;;
51358;SDS011;37448;51.588;7.248;2024-02-16T04:11:41;2.35;;;0.85;;
51358;SDS011;37448;51.588;7.248;2024-02-16T04:13:41;4.25;;;1.25;;
51358;SDS011;37448;51.588;7.248;2024-02-16T04:15:42;1.73;;;0.90;;
51358;SDS011;37448;51.588;7.248;2024-02-16T04:19:46;1.67;;;1.33;;
51358;SDS011;37448;51.588;7.248;2024-02-16T04:21:47;1.63;;;0.90;;
51358;SDS011;37448;51.588;7.248;2024-02-16T04:23:47;1.80;;;1.00;;
51358;SDS011;37448;51.588;7.248;2024-02-16T04:25:50;1.83;;;1.10;;
51358;SDS011;37448;51.588;7.248;2024-02-16T04:27:51;1.98;;;0.82;;
51358;SDS011;37448;51.588;7.248;2024-02-16T04:29:54;2.40;;;0.80;;
51358;SDS011;37448;51.588;7.248;2024-02-16T04:31:55;3.13;;;1.40;;
51358;SDS011;37448;51.588;7.248;2024-02-16T04:33:56;2.20;;;0.95;;
51358;SDS011;37448;51.588;7.248;2024-02-16T04:35:56;2.10;;;1.20;;
51358;SDS011;37448;51.588;7.248;2024-02-16T04:37:57;1.85;;;1.35;;
51358;SDS011;37448;51.588;7.248;2024-02-16T04:39:58;1.52;;;1.00;;
51358;SDS011;37448;51.588;7.248;2024-02-16T04:41:59;1.00;;;0.88;;
51358;SDS011;37448;51.588;7.248;2024-02-16T04:43:59;2.63;;;1.02;;
51358;SDS011;37448;51.588;7.248;2024-02-16T04:46:00;2.13;;;1.08;;
51358;SDS011;37448;51.588;7.248;2024-02-16T04:48:04;4.72;;;1.20;;
51358;SDS011;37448;51.588;7.248;2024-02-16T04:50:07;3.90;;;1.17;;
51358;SDS011;37448;51.588;7.248;2024-02-16T04:52:11;3.45;;;1.15;;
51358;SDS011;37448;51.588;7.248;2024-02-16T04:54:11;4.18;;;1.00;;
51358;SDS011;37448;51.588;7.248;2024-02-16T04:56:12;2.65;;;1.15;;
51358;SDS011;37448;51.588;7.248;2024-02-16T04:58:12;3.10;;;1.15;;
51358;SDS011;37448;51.588;7.248;2024-02-16T05:00:13;2.10;;;1.00;;
51358;SDS011;37448;51.588;7.248;2024-02-16T05:02:13;2.53;;;1.15;;
51358;SDS011;37448;51.588;7.248;2024-02-16T05:04:14;3.38;;;0.90;;
51358;SDS011;37448;51.588;7.248;2024-02-16T05:06:17;3.97;;;1.42;;
51358;SDS011;37448;51.588;7.248;2024-02-16T05:08:17;4.55;;;1.20;;
51358;SDS011;37448;51.588;7.248;2024-02-16T05:10:17;2.22;;;0.90;;
51358;SDS011;37448;51.588;7.248;2024-02-16T05:12:19;2.60;;;2.03;;
51358;SDS011;37448;51.588;7.248;2024-02-16T05:14:20;2.58;;;1.00;;
51358;SDS011;37448;51.588;7.248;2024-02-16T05:16:21;2.00;;;1.08;;
51358;SDS011;37448;51.588;7.248;2024-02-16T05:18:22;2.33;;;1.08;;
51358;SDS011;37448;51.588;7.248;2024-02-16T05:20:22;3.72;;;1.02;;
51358;SDS011;37448;51.588;7.248;2024-02-16T05:22:23;1.40;;;0.90;;
51358;SDS011;37448;51.588;7.248;2024-02-16T05:24:23;2.17;;;1.10;;
51358;SDS011;37448;51.588;7.248;2024-02-16T05:26:24;1.52;;;0.88;;
51358;SDS011;37448;51.588;7.248;2024-02-16T05:28:24;2.03;;;1.05;;
51358;SDS011;37448;51.588;7.248;2024-02-16T05:30:25;1.27;;;0.98;;
51358;SDS011;37448;51.588;7.248;2024-02-16T05:32:25;1.27;;;0.82;;
51358;SDS011;37448;51.588;7.248;2024-02-16T05:34:26;3.85;;;1.13;;
51358;SDS011;37448;51.588;7.248;2024-02-16T05:36:27;2.72;;;1.42;;
51358;SDS011;37448;51.588;7.248;2024-02-16T05:38:30;2.45;;;1.05;;
51358;SDS011;37448;51.588;7.248;2024-02-16T05:40:40;2.60;;;1.15;;
51358;SDS011;37448;51.588;7.248;2024-02-16T05:42:53;3.13;;;1.00;;
51358;SDS011;37448;51.588;7.248;2024-02-16T05:44:54;3.95;;;1.55;;
51358;SDS011;37448;51.588;7.248;2024-02-16T05:46:54;3.47;;;1.10;;
51358;SDS011;37448;51.588;7.248;2024-02-16T05:48:55;2.55;;;1.02;;
51358;SDS011;37448;51.588;7.248;2024-02-16T05:51:00;2.42;;;1.20;;
51358;SDS011;37448;51.588;7.248;2024-02-16T05:53:01;3.45;;;1.13;;
51358;SDS011;37448;51.588;7.248;2024-02-16T05:55:01;3.25;;;1.20;;
51358;SDS011;37448;51.588;7.248;2024-02-16T05:57:01;3.45;;;1.30;;
51358;SDS011;37448;51.588;7.248;2024-02-16T05:59:04;2.22;;;1.00;;
51358;SDS011;37448;51.588;7.248;2024-02-16T06:01:05;2.20;;;1.38;;
51358;SDS011;37448;51.588;7.248;2024-02-16T06:03:06;2.63;;;0.95;;
51358;SDS011;37448;51.588;7.248;2024-02-16T06:05:07;1.90;;;1.05;;
51358;SDS011;37448;51.588;7.248;2024-02-16T06:07:07;2.53;;;1.10;;
51358;SDS011;37448;51.588;7.248;2024-02-16T06:09:08;2.45;;;1.40;;
51358;SDS011;37448;51.588;7.248;2024-02-16T06:11:09;3.83;;;1.42;;
51358;SDS011;37448;51.588;7.248;2024-02-16T06:13:09;3.03;;;1.17;;
51358;SDS011;37448;51.588;7.248;2024-02-16T06:15:09;2.53;;;1.13;;
51358;SDS011;37448;51.588;7.248;2024-02-16T06:17:10;2.38;;;1.08;;
51358;SDS011;37448;51.588;7.248;2024-02-16T06:19:11;2.08;;;1.27;;
51358;SDS011;37448;51.588;7.248;2024-02-16T06:21:11;2.47;;;1.20;;
51358;SDS011;37448;51.588;7.248;2024-02-16T06:23:13;2.45;;;1.15;;
51358;SDS011;37448;51.588;7.248;2024-02-16T06:25:13;2.45;;;1.15;;
51358;SDS011;37448;51.588;7.248;2024-02-16T06:27:15;2.38;;;1.10;;
51358;SDS011;37448;51.588;7.248;2024-02-16T06:29:15;3.42;;;1.50;;
51358;SDS011;37448;51.588;7.248;2024-02-16T06:31:16;2.63;;;1.10;;
51358;SDS011;37448;51.588;7.248;2024-02-16T06:33:16;2.15;;;1.10;;
51358;SDS011;37448;51.588;7.248;2024-02-16T06:35:17;2.10;;;1.30;;
51358;SDS011;37448;51.588;7.248;2024-02-16T06:37:18;3.70;;;1.38;;
51358;SDS011;37448;51.588;7.248;2024-02-16T06:39:18;3.13;;;1.25;;
51358;SDS011;37448;51.588;7.248;2024-02-16T06:41:19;2.80;;;1.38;;
51358;SDS011;37448;51.588;7.248;2024-02-16T06:43:20;3.22;;;1.20;;
51358;SDS011;37448;51.588;7.248;2024-02-16T06:45:20;2.13;;;1.10;;
51358;SDS011;37448;51.588;7.248;2024-02-16T06:47:21;2.92;;;1.35;;
51358;SDS011;37448;51.588;7.248;2024-02-16T06:49:23;2.13;;;1.55;;
51358;SDS011;37448;51.588;7.248;2024-02-16T06:51:24;2.20;;;1.55;;
51358;SDS011;37448;51.588;7.248;2024-02-16T06:53:25;2.28;;;1.38;;
51358;SDS011;37448;51.588;7.248;2024-02-16T06:55:25;3.53;;;1.35;;
51358;SDS011;37448;51.588;7.248;2024-02-16T06:57:25;4.05;;;1.30;;
51358;SDS011;37448;51.588;7.248;2024-02-16T06:59:26;1.42;;;1.05;;
51358;SDS011;37448;51.588;7.248;2024-02-16T07:01:26;2.60;;;1.50;;
51358;SDS011;37448;51.588;7.248;2024-02-16T07:03:29;4.43;;;1.60;;
51358;SDS011;37448;51.588;7.248;2024-02-16T07:05:30;5.63;;;1.73;;
51358;SDS011;37448;51.588;7.248;2024-02-16T07:07:31;3.70;;;1.60;;
51358;SDS011;37448;51.588;7.248;2024-02-16T07:09:36;3.25;;;1.60;;
51358;SDS011;37448;51.588;7.248;2024-02-16T07:11:36;4.78;;;1.90;;
51358;SDS011;37448;51.588;7.248;2024-02-16T07:13:37;3.13;;;1.63;;
51358;SDS011;37448;51.588;7.248;2024-02-16T07:15:38;3.00;;;1.40;;
51358;SDS011;37448;51.588;7.248;2024-02-16T07:17:40;4.68;;;1.38;;
51358;SDS011;37448;51.588;7.248;2024-02-16T07:19:40;2.88;;;1.45;;
51358;SDS011;37448;51.588;7.248;2024-02-16T07:21:41;3.58;;;1.77;;
51358;SDS011;37448;51.588;7.248;2024-02-16T07:23:41;2.35;;;1.10;;
51358;SDS011;37448;51.588;7.248;2024-02-16T07:25:41;3.05;;;1.50;;
51358;SDS011;37448;51.588;7.248;2024-02-16T07:27:42;4.68;;;1.30;;
51358;SDS011;37448;51.588;7.248;2024-02-16T07:29:42;2.55;;;1.63;;
51358;SDS011;37448;51.588;7.248;2024-02-16T07:31:43;2.05;;;1.38;;
51358;SDS011;37448;51.588;7.248;2024-02-16T07:33:43;4.68;;;1.55;;
51358;SDS011;37448;51.588;7.248;2024-02-16T07:35:44;4.38;;;1.90;;
51358;SDS011;37448;51.588;7.248;2024-02-16T07:37:44;5.00;;;1.50;;
51358;SDS011;37448;51.588;7.248;2024-02-16T07:39:45;4.25;;;1.70;;
51358;SDS011;37448;51.588;7.248;2024-02-16T07:41:45;4.53;;;1.95;;
51358;SDS011;37448;51.588;7.248;2024-02-16T07:43:45;2.30;;;1.33;;
51358;SDS011;37448;51.588;7.248;2024-02-16T07:45:46;7.45;;;1.60;;
51358;SDS011;37448;51.588;7.248;2024-02-16T07:47:46;5.78;;;1.58;;
51358;SDS011;37448;51.588;7.248;2024-02-16T07:49:46;4.53;;;1.80;;
51358;SDS011;37448;51.588;7.248;2024-02-16T07:51:47;4.80;;;1.77;;
51358;SDS011;37448;51.588;7.248;2024-02-16T07:53:47;5.55;;;2.00;;
51358;SDS011;37448;51.588;7.248;2024-02-16T07:55:48;4.55;;;1.80;;
51358;SDS011;37448;51.588;7.248;2024-02-16T07:57:48;4.95;;;1.75;;
51358;SDS011;37448;51.588;7.248;2024-02-16T07:59:48;5.32;;;1.70;;
51358;SDS011;37448;51.588;7.248;2024-02-16T08:01:49;2.13;;;1.42;;
51358;SDS011;37448;51.588;7.248;2024-02-16T08:03:49;4.93;;;1.48;;
51358;SDS011;37448;51.588;7.248;2024-02-16T08:05:50;2.63;;;1.42;;
51358;SDS011;37448;51.588;7.248;2024-02-16T08:07:50;3.47;;;1.63;;
51358;SDS011;37448;51.588;7.248;2024-02-16T08:09:51;3.78;;;1.73;;
51358;SDS011;37448;51.588;7.248;2024-02-16T08:11:51;4.43;;;1.58;;
51358;SDS011;37448;51.588;7.248;2024-02-16T08:13:52;2.65;;;1.38;;
51358;SDS011;37448;51.588;7.248;2024-02-16T08:15:52;4.28;;;1.95;;
51358;SDS011;37448;51.588;7.248;2024-02-16T08:17:52;2.40;;;1.42;;
51358;SDS011;37448;51.588;7.248;2024-02-16T08:19:54;4.68;;;2.13;;
51358;SDS011;37448;51.588;7.248;2024-02-16T08:21:54;2.75;;;1.30;;
51358;SDS011;37448;51.588;7.248;2024-02-16T08:23:54;4.00;;;1.50;;
51358;SDS011;37448;51.588;7.248;2024-02-16T08:25:55;3.33;;;1.27;;
51358;SDS011;37448;51.588;7.248;2024-02-16T08:27:55;2.08;;;1.45;;
51358;SDS011;37448;51.588;7.248;2024-02-16T08:29:56;2.60;;;1.63;;
51358;SDS011;37448;51.588;7.248;2024-02-16T08:31:57;4.30;;;1.95;;
51358;SDS011;37448;51.588;7.248;2024-02-16T08:33:57;3.60;;;1.60;;
51358;SDS011;37448;51.588;7.248;2024-02-16T08:35:57;4.45;;;1.30;;
51358;SDS011;37448;51.588;7.248;2024-02-16T08:37:58;2.88;;;1.50;;
51358;SDS011;37448;51.588;7.248;2024-02-16T08:39:58;3.35;;;1.50;;
51358;SDS011;37448;51.588;7.248;2024-02-16T08:41:59;4.20;;;1.55;;
51358;SDS011;37448;51.588;7.248;2024-02-16T08:44:00;4.03;;;1.58;;
51358;SDS011;37448;51.588;7.248;2024-02-16T08:46:00;3.95;;;2.42;;
51358;SDS011;37448;51.588;7.248;2024-02-16T08:48:00;4.40;;;1.60;;
51358;SDS011;37448;51.588;7.248;2024-02-16T08:50:03;1.80;;;1.20;;
51358;SDS011;37448;51.588;7.248;2024-02-16T08:52:06;2.70;;;1.95;;
51358;SDS011;37448;51.588;7.248;2024-02-16T08:54:06;4.60;;;1.88;;
51358;SDS011;37448;51.588;7.248;2024-02-16T08:56:10;4.18;;;1.50;;
51358;SDS011;37448;51.588;7.248;2024-02-16T08:58:13;5.70;;;2.35;;
51358;SDS011;37448;51.588;7.248;2024-02-16T09:00:13;5.05;;;1.45;;
51358;SDS011;37448;51.588;7.248;2024-02-16T09:02:16;2.50;;;1.73;;
51358;SDS011;37448;51.588;7.248;2024-02-16T09:04:16;5.40;;;1.83;;
51358;SDS011;37448;51.588;7.248;2024-02-16T09:06:16;2.92;;;2.10;;
51358;SDS011;37448;51.588;7.248;2024-02-16T09:08:17;3.83;;;1.40;;
51358;SDS011;37448;51.588;7.248;2024-02-16T09:10:18;5.63;;;2.10;;
51358;SDS011;37448;51.588;7.248;2024-02-16T09:12:18;3.50;;;1.60;;
51358;SDS011;37448;51.588;7.248;2024-02-16T09:14:18;3.78;;;1.73;;
51358;SDS011;37448;51.588;7.248;2024-02-16T09:16:19;3.08;;;1.70;;
51358;SDS011;37448;51.588;7.248;2024-02-16T09:18:20;2.40;;;1.55;;
51358;SDS011;37448;51.588;7.248;2024-02-16T09:20:20;2.72;;;1.25;;
51358;SDS011;37448;51.588;7.248;2024-02-16T09:22:22;4.25;;;1.55;;
51358;SDS011;37448;51.588;7.248;2024-02-16T09:24:22;3.28;;;1.77;;
51358;SDS011;37448;51.588;7.248;2024-02-16T09:26:25;2.92;;;1.42;;
51358;SDS011;37448;51.588;7.248;2024-02-16T09:28:30;4.03;;;1.70;;
51358;SDS011;37448;51.588;7.248;2024-02-16T09:30:30;4.45;;;1.73;;
51358;SDS011;37448;51.588;7.248;2024-02-16T09:32:32;1.88;;;1.52;;
51358;SDS011;37448;51.588;7.248;2024-02-16T09:34:32;3.72;;;2.53;;
51358;SDS011;37448;51.588;7.248;2024-02-16T09:36:33;3.35;;;1.52;;
51358;SDS011;37448;51.588;7.248;2024-02-16T09:38:35;5.40;;;2.63;;
51358;SDS011;37448;51.588;7.248;2024-02-16T09:40:36;4.93;;;2.05;;
51358;SDS011;37448;51.588;7.248;2024-02-16T09:42:37;3.70;;;1.88;;
51358;SDS011;37448;51.588;7.248;2024-02-16T09:44:38;4.47;;;1.70;;
51358;SDS011;37448;51.588;7.248;2024-02-16T09:46:40;5.68;;;2.58;;
51358;SDS011;37448;51.588;7.248;2024-02-16T09:48:40;4.90;;;1.80;;
51358;SDS011;37448;51.588;7.248;2024-02-16T09:50:41;3.22;;;1.60;;
51358;SDS011;37448;51.588;7.248;2024-02-16T09:52:45;4.35;;;2.15;;
51358;SDS011;37448;51.588;7.248;2024-02-16T09:54:50;4.10;;;1.83;;
51358;SDS011;37448;51.588;7.248;2024-02-16T09:56:50;5.22;;;1.58;;
51358;SDS011;37448;51.588;7.248;2024-02-16T09:58:51;5.18;;;1.80;;
51358;SDS011;37448;51.588;7.248;2024-02-16T10:00:52;3.05;;;1.80;;
51358;SDS011;37448;51.588;7.248;2024-02-16T10:02:57;5.47;;;2.40;;
51358;SDS011;37448;51.588;7.248;2024-02-16T10:04:57;6.80;;;2.00;;
51358;SDS011;37448;51.588;7.248;2024-02-16T10:06:58;5.18;;;1.98;;
51358;SDS011;37448;51.588;7.248;2024-02-16T10:08:58;6.68;;;2.60;;
51358;SDS011;37448;51.588;7.248;2024-02-16T10:11:02;3.78;;;2.05;;
51358;SDS011;37448;51.588;7.248;2024-02-16T10:13:04;3.40;;;1.67;;
51358;SDS011;37448;51.588;7.248;2024-02-16T10:15:05;5.20;;;2.08;;
51358;SDS011;37448;51.588;7.248;2024-02-16T10:17:06;3.08;;;1.92;;
51358;SDS011;37448;51.588;7.248;2024-02-16T10:19:09;2.83;;;1.60;;
51358;SDS011;37448;51.588;7.248;2024-02-16T10:23:13;2.60;;;1.67;;
51358;SDS011;37448;51.588;7.248;2024-02-16T10:25:13;5.70;;;1.83;;
51358;SDS011;37448;51.588;7.248;2024-02-16T10:27:14;4.78;;;2.10;;
51358;SDS011;37448;51.588;7.248;2024-02-16T10:29:19;3.85;;;1.83;;
51358;SDS011;37448;51.588;7.248;2024-02-16T10:31:20;6.70;;;1.63;;
51358;SDS011;37448;51.588;7.248;2024-02-16T10:33:28;3.53;;;1.88;;
51358;SDS011;37448;51.588;7.248;2024-02-16T10:35:29;4.00;;;2.08;;
51358;SDS011;37448;51.588;7.248;2024-02-16T10:37:30;4.10;;;1.80;;
51358;SDS011;37448;51.588;7.248;2024-02-16T10:39:31;6.38;;;2.03;;
51358;SDS011;37448;51.588;7.248;2024-02-16T10:41:37;6.10;;;2.17;;
51358;SDS011;37448;51.588;7.248;2024-02-16T10:43:40;6.80;;;1.95;;
51358;SDS011;37448;51.588;7.248;2024-02-16T10:45:40;4.30;;;1.58;;
51358;SDS011;37448;51.588;7.248;2024-02-16T10:47:40;3.88;;;1.98;;
51358;SDS011;37448;51.588;7.248;2024-02-16T10:49:41;5.68;;;1.83;;
51358;SDS011;37448;51.588;7.248;2024-02-16T10:53:44;6.15;;;2.35;;
51358;SDS011;37448;51.588;7.248;2024-02-16T10:55:45;3.75;;;2.05;;
51358;SDS011;37448;51.588;7.248;2024-02-16T10:57:45;4.53;;;1.70;;
51358;SDS011;37448;51.588;7.248;2024-02-16T10:59:46;4.68;;;1.83;;
51358;SDS011;37448;51.588;7.248;2024-02-16T11:01:48;2.65;;;1.80;;
51358;SDS011;37448;51.588;7.248;2024-02-16T11:04:03;3.40;;;1.70;;
51358;SDS011;37448;51.588;7.248;2024-02-16T11:06:11;5.13;;;1.63;;
51358;SDS011;37448;51.588;7.248;2024-02-16T11:08:16;6.50;;;2.28;;
51358;SDS011;37448;51.588;7.248;2024-02-16T11:10:18;4.68;;;1.95;;
51358;SDS011;37448;51.588;7.248;2024-02-16T11:12:18;3.25;;;2.10;;
51358;SDS011;37448;51.588;7.248;2024-02-16T11:14:18;6.57;;;2.00;;
51358;SDS011;37448;51.588;7.248;2024-02-16T11:16:21;3.55;;;1.67;;
51358;SDS011;37448;51.588;7.248;2024-02-16T11:18:22;5.45;;;1.88;;
51358;SDS011;37448;51.588;7.248;2024-02-16T11:20:23;6.68;;;2.05;;
51358;SDS011;37448;51.588;7.248;2024-02-16T11:22:26;4.53;;;2.13;;
51358;SDS011;37448;51.588;7.248;2024-02-16T11:24:31;6.65;;;2.47;;
51358;SDS011;37448;51.588;7.248;2024-02-16T11:26:41;5.35;;;1.75;;
51358;SDS011;37448;51.588;7.248;2024-02-16T11:28:43;3.45;;;1.80;;
51358;SDS011;37448;51.588;7.248;2024-02-16T11:30:45;7.25;;;2.40;;
51358;SDS011;37448;51.588;7.248;2024-02-16T11:32:45;5.40;;;2.50;;
51358;SDS011;37448;51.588;7.248;2024-02-16T11:34:46;3.42;;;2.13;;
51358;SDS011;37448;51.588;7.248;2024-02-16T11:36:47;5.65;;;2.50;;
51358;SDS011;37448;51.588;7.248;2024-02-16T11:38:47;3.97;;;2.33;;
51358;SDS011;37448;51.588;7.248;2024-02-16T11:41:02;6.85;;;2.63;;
51358;SDS011;37448;51.588;7.248;2024-02-16T11:43:04;6.25;;;2.10;;
51358;SDS011;37448;51.588;7.248;2024-02-16T11:45:05;2.92;;;2.00;;
51358;SDS011;37448;51.588;7.248;2024-02-16T11:47:09;5.15;;;2.13;;
51358;SDS011;37448;51.588;7.248;2024-02-16T11:49:15;5.50;;;2.25;;
51358;SDS011;37448;51.588;7.248;2024-02-16T11:51:17;4.40;;;2.28;;
51358;SDS011;37448;51.588;7.248;2024-02-16T11:53:18;7.60;;;2.30;;
51358;SDS011;37448;51.588;7.248;2024-02-16T11:55:23;3.55;;;1.77;;
51358;SDS011;37448;51.588;7.248;2024-02-16T11:57:24;6.68;;;2.50;;
51358;SDS011;37448;51.588;7.248;2024-02-16T11:59:25;6.80;;;2.38;;
51358;SDS011;37448;51.588;7.248;2024-02-16T12:01:27;6.15;;;2.40;;
51358;SDS011;37448;51.588;7.248;2024-02-16T12:03:27;3.72;;;2.40;;
51358;SDS011;37448;51.588;7.248;2024-02-16T12:05:28;2.88;;;1.85;;
51358;SDS011;37448;51.588;7.248;2024-02-16T12:07:30;5.32;;;2.35;;
51358;SDS011;37448;51.588;7.248;2024-02-16T12:09:31;4.03;;;2.20;;
51358;SDS011;37448;51.588;7.248;2024-02-16T12:11:35;3.70;;;2.35;;
51358;SDS011;37448;51.588;7.248;2024-02-16T12:13:36;6.15;;;2.53;;
51358;SDS011;37448;51.588;7.248;2024-02-16T12:15:39;7.95;;;2.53;;